TimePST,TemperatureF,Dew PointF,Humidity,Sea Level PressureIn,VisibilityMPH,Wind Direction,Wind SpeedMPH,Gust SpeedMPH,PrecipitationIn,Events,Conditions,WindDirDegrees,DateUTC
12:00 AM,39.2,28.4,65,29.89,20.0,Calm,Calm,-,N/A,,Partly Cloudy,0,2012-11-09 08:00:00
1:00 AM,39.2,28.4,65,29.88,20.0,South,3.5,-,N/A,,Partly Cloudy,170,2012-11-09 09:00:00
2:00 AM,35.6,26.6,70,29.88,20.0,Calm,Calm,-,N/A,,Partly Cloudy,0,2012-11-09 10:00:00
3:00 AM,35.6,28.4,75,29.89,20.0,Calm,Calm,-,N/A,,Partly Cloudy,0,2012-11-09 11:00:00
4:00 AM,34,25,60,29.89,19,Calm,Calm,,,,Scattered Clouds,,2012-11-09 12:00:00
4:00 AM,33.8,24.8,70,29.89,20.0,Calm,Calm,-,N/A,,Partly Cloudy,0,2012-11-09 12:00:00
5:00 AM,33.8,26.6,75,29.90,20.0,Calm,Calm,-,N/A,,Partly Cloudy,0,2012-11-09 13:00:00
6:00 AM,37.4,26.6,65,29.90,20.0,Calm,Calm,-,N/A,,Partly Cloudy,0,2012-11-09 14:00:00
7:00 AM,33.8,24.8,70,29.91,20.0,East,3.5,-,N/A,,Partly Cloudy,100,2012-11-09 15:00:00
8:00 AM,37.4,24.8,60,29.93,20.0,East,3.5,-,N/A,,Partly Cloudy,100,2012-11-09 16:00:00
9:00 AM,41.0,28.4,61,29.93,20.0,SE,2.3,-,N/A,,Partly Cloudy,130,2012-11-09 17:00:00
10:00 AM,46,27,35,29.94,19,Calm,Calm,,,,Scattered Clouds,,2012-11-09 18:00:00
10:00 AM,46.4,26.6,46,29.94,20.0,Calm,Calm,-,N/A,,Partly Cloudy,0,2012-11-09 18:00:00
11:00 AM,44.6,30.2,57,29.94,30.0,NW,4.6,-,N/A,,Partly Cloudy,310,2012-11-09 19:00:00
12:00 PM,46.4,28.4,50,29.93,30.0,WNW,3.5,-,N/A,,Partly Cloudy,290,2012-11-09 20:00:00
1:00 PM,46.4,26.6,46,29.93,30.0,WNW,5.8,-,N/A,,Partly Cloudy,300,2012-11-09 21:00:00
2:00 PM,46.4,28.4,50,29.92,30.0,West,6.9,-,N/A,,Partly Cloudy,280,2012-11-09 22:00:00
3:00 PM,44.6,32.0,61,29.92,30.0,West,5.8,-,N/A,,Partly Cloudy,260,2012-11-09 23:00:00
4:00 PM,43,31,51,29.92,28,West,4.6,,,,Scattered Clouds,270,2012-11-10 00:00:00
4:00 PM,42.8,30.2,61,29.92,30.0,West,4.6,-,N/A,,Partly Cloudy,280,2012-11-10 00:00:00
5:00 PM,39.2,30.2,70,29.93,20.0,NW,5.8,-,N/A,,Mostly Cloudy,310,2012-11-10 01:00:00
6:00 PM,42.8,30.2,61,29.94,20.0,NW,11.5,-,N/A,,Mostly Cloudy,310,2012-11-10 02:00:00
7:00 PM,41.0,28.4,61,29.95,20.0,East,4.6,-,N/A,,Mostly Cloudy,80,2012-11-10 03:00:00
8:00 PM,42.8,23.0,46,29.96,20.0,ESE,11.5,-,N/A,,Mostly Cloudy,120,2012-11-10 04:00:00
9:00 PM,39.2,24.8,56,29.98,20.0,ESE,8.1,-,N/A,,Mostly Cloudy,120,2012-11-10 05:00:00
10:00 PM,40,24,41,29.98,19,ESE,6.9,,,,Scattered Clouds,120,2012-11-10 06:00:00
10:00 PM,39.2,24.8,56,29.98,20.0,ESE,6.9,-,N/A,,Mostly Cloudy,120,2012-11-10 06:00:00
11:00 PM,41.0,21.2,45,30.00,20.0,East,12.7,-,N/A,,Mostly Cloudy,90,2012-11-10 07:00:00